Time,TemperatureF,DewpointF,PressureIn,WindDirection,WindDirectionDegrees,WindSpeedMPH,WindSpeedGustMPH,Humidity,HourlyPrecipIn,Conditions,Clouds,dailyrainin,SoftwareType,DateUTC
2013-04-11 00:00:00,41.7,40.1,29.93,ENE,67,2.0,11.0,94,0.00,,-RA,0.00,VWS V14.00,2013-04-11 04:00:00,
2013-04-11 00:05:00,41.6,40.0,29.95,ENE,61,0.0,9.0,94,0.00,,-RA,0.00,VWS V14.00,2013-04-11 04:05:00,
2013-04-11 00:10:00,41.6,40.0,29.96,East,90,4.0,6.0,94,0.00,,-RA,0.00,VWS V14.00,2013-04-11 04:10:00,
2013-04-11 00:15:00,41.6,40.0,29.96,ESE,106,0.0,12.0,94,0.00,,-RA,0.00,VWS V14.00,2013-04-11 04:15:00,
2013-04-11 00:20:00,41.7,40.1,29.94,ESE,102,3.0,10.0,94,0.00,,-RA,0.00,VWS V14.00,2013-04-11 04:20:00,
2013-04-11 00:25:00,41.7,40.1,29.93,East,98,3.0,11.0,94,0.00,,-RA,0.00,VWS V14.00,2013-04-11 04:25:00,
2013-04-11 00:30:00,41.7,40.1,29.91,ENE,74,4.0,8.0,94,0.00,,-RA,0.00,VWS V14.00,2013-04-11 04:30:00,
2013-04-11 00:35:00,41.6,40.0,29.85,East,84,9.0,13.0,94,0.00,,-RA,0.00,VWS V14.00,2013-04-11 04:35:00,
2013-04-11 00:40:00,41.4,39.5,29.82,East,88,10.0,23.0,93,0.01,,-RA,0.01,VWS V14.00,2013-04-11 04:40:00,
2013-04-11 00:45:00,41.3,39.4,29.84,East,94,7.0,23.0,93,0.01,,-RA,0.01,VWS V14.00,2013-04-11 04:45:00,
2013-04-11 00:50:00,41.3,39.4,29.87,East,101,2.0,9.0,93,0.02,,-RA,0.02,VWS V14.00,2013-04-11 04:50:00,
2013-04-11 00:55:00,41.3,39.4,29.90,NE,44,3.0,9.0,93,0.02,,-RA,0.02,VWS V14.00,2013-04-11 04:55:00,
2013-04-11 01:00:00,41.3,39.4,29.90,ENE,57,2.0,12.0,93,0.02,,-RA,0.02,VWS V14.00,2013-04-11 05:00:00,
2013-04-11 01:05:00,41.3,39.4,29.91,ENE,61,4.0,12.0,93,0.02,,-RA,0.02,VWS V14.00,2013-04-11 05:05:00,
2013-04-11 01:10:00,41.3,39.4,29.90,East,82,6.0,11.0,93,0.02,,-RA,0.02,VWS V14.00,2013-04-11 05:10:00,
2013-04-11 01:15:00,41.3,39.4,29.89,East,96,9.0,12.0,93,0.02,,-RA,0.02,VWS V14.00,2013-04-11 05:15:00,
2013-04-11 01:20:00,41.2,39.3,29.88,ESE,107,2.0,16.0,93,0.02,,-RA,0.02,VWS V14.00,2013-04-11 05:20:00,
2013-04-11 01:25:00,41.2,39.3,29.86,ENE,77,4.0,16.0,93,0.03,,-RA,0.03,VWS V14.00,2013-04-11 05:25:00,
2013-04-11 01:30:00,41.1,39.2,29.86,ENE,65,10.0,12.0,93,0.03,,-RA,0.03,VWS V14.00,2013-04-11 05:30:00,
2013-04-11 01:35:00,41.1,39.2,29.87,East,90,5.0,12.0,93,0.03,,-RA,0.03,VWS V14.00,2013-04-11 05:35:00,
2013-04-11 01:40:00,41.1,39.2,29.87,ENE,59,4.0,9.0,93,0.02,,-RA,0.03,VWS V14.00,2013-04-11 05:40:00,
2013-04-11 01:45:00,41.0,39.1,29.88,East,80,4.0,19.0,93,0.02,,-RA,0.03,VWS V14.00,2013-04-11 05:45:00,
2013-04-11 01:50:00,41.1,39.2,29.91,East,81,3.0,9.0,93,0.01,,-RA,0.03,VWS V14.00,2013-04-11 05:50:00,
2013-04-11 01:55:00,41.1,39.2,29.95,ESE,123,0.0,13.0,93,0.01,,-RA,0.03,VWS V14.00,2013-04-11 05:55:00,
2013-04-11 02:00:00,41.1,39.2,29.95,ESE,118,2.0,7.0,93,0.01,,RA,0.03,VWS V14.00,2013-04-11 06:00:00,
2013-04-11 02:05:00,41.1,39.2,29.89,ENE,59,10.0,16.0,93,0.01,,RA,0.03,VWS V14.00,2013-04-11 06:05:00,
2013-04-11 02:10:00,41.1,39.2,29.91,ENE,57,6.0,16.0,93,0.02,,RA,0.04,VWS V14.00,2013-04-11 06:10:00,
2013-04-11 02:15:00,41.0,39.1,29.92,NE,51,3.0,16.0,93,0.02,,RA,0.04,VWS V14.00,2013-04-11 06:15:00,
2013-04-11 02:20:00,41.0,39.1,29.93,ENE,74,0.0,4.0,93,0.03,,RA,0.05,VWS V14.00,2013-04-11 06:20:00,
2013-04-11 02:25:00,41.1,39.2,29.92,NE,37,2.0,6.0,93,0.03,,RA,0.05,VWS V14.00,2013-04-11 06:25:00,
2013-04-11 02:30:00,41.1,39.2,29.91,ENE,78,2.0,6.0,93,0.04,,RA,0.07,VWS V14.00,2013-04-11 06:30:00,
2013-04-11 02:35:00,41.0,39.1,29.91,East,98,5.0,14.0,93,0.05,,RA,0.08,VWS V14.00,2013-04-11 06:35:00,
2013-04-11 02:40:00,41.0,39.1,29.92,East,98,4.0,9.0,93,0.06,,RA,0.09,VWS V14.00,2013-04-11 06:40:00,
2013-04-11 02:45:00,41.0,39.1,29.91,ENE,73,2.0,11.0,93,0.10,,RA,0.13,VWS V14.00,2013-04-11 06:45:00,
2013-04-11 02:50:00,40.9,39.0,29.89,ENE,57,11.0,14.0,93,0.14,,RA,0.17,VWS V14.00,2013-04-11 06:50:00,
2013-04-11 02:55:00,40.9,39.0,29.85,ENE,61,7.0,17.0,93,0.16,,RA,0.19,VWS V14.00,2013-04-11 06:55:00,
2013-04-11 03:00:00,40.8,38.9,29.83,ESE,104,4.0,9.0,93,0.16,,OVC009,0.19,VWS V14.00,2013-04-11 07:00:00,
2013-04-11 03:05:00,40.8,38.9,29.84,ESE,117,6.0,14.0,93,0.17,,OVC009,0.20,VWS V14.00,2013-04-11 07:05:00,
2013-04-11 03:10:00,40.7,38.8,29.85,ENE,60,1.0,6.0,93,0.16,,OVC009,0.20,VWS V14.00,2013-04-11 07:10:00,
2013-04-11 03:15:00,40.7,38.8,29.86,NE,49,5.0,14.0,93,0.16,,OVC009,0.20,VWS V14.00,2013-04-11 07:15:00,
2013-04-11 03:20:00,40.7,38.8,29.86,ESE,102,5.0,11.0,93,0.15,,OVC009,0.20,VWS V14.00,2013-04-11 07:20:00,
2013-04-11 03:28:00,40.8,38.9,29.84,East,84,4.0,4.0,93,0.00,,OVC009,0.20,VWS V14.00,2013-04-11 07:28:00,
2013-04-11 03:33:00,40.8,38.9,29.85,ENE,63,6.0,12.0,93,0.14,,OVC009,0.20,VWS V14.00,2013-04-11 07:33:00,
2013-04-11 03:38:00,40.9,39.0,29.84,ESE,106,5.0,12.0,93,0.14,,OVC009,0.20,VWS V14.00,2013-04-11 07:38:00,
2013-04-11 03:43:00,40.9,39.0,29.83,East,91,6.0,14.0,93,0.11,,OVC009,0.20,VWS V14.00,2013-04-11 07:43:00,
2013-04-11 03:48:00,40.8,38.9,29.83,East,86,5.0,17.0,93,0.11,,OVC009,0.20,VWS V14.00,2013-04-11 07:48:00,
2013-04-11 03:53:00,40.8,38.9,29.82,ENE,75,6.0,12.0,93,0.04,,OVC009,0.20,VWS V14.00,2013-04-11 07:53:00,
2013-04-11 03:58:00,40.8,38.9,29.82,East,92,5.0,16.0,93,0.04,,OVC009,0.20,VWS V14.00,2013-04-11 07:58:00,
2013-04-11 04:03:00,40.9,39.0,29.83,NNE,23,13.0,13.0,93,0.01,,OVC007,0.20,VWS V14.00,2013-04-11 08:03:00,
2013-04-11 04:08:00,40.9,39.0,29.83,East,89,7.0,16.0,93,0.01,,OVC007,0.20,VWS V14.00,2013-04-11 08:08:00,
2013-04-11 04:13:00,41.0,39.1,29.83,ESE,104,4.0,14.0,93,0.00,,OVC007,0.20,VWS V14.00,2013-04-11 08:13:00,
2013-04-11 04:18:00,41.0,39.4,29.83,East,98,3.0,14.0,94,0.00,,OVC007,0.20,VWS V14.00,2013-04-11 08:18:00,
2013-04-11 04:23:00,41.0,39.1,29.83,ENE,57,8.0,14.0,93,0.00,,OVC007,0.20,VWS V14.00,2013-04-11 08:23:00,
2013-04-11 04:28:00,41.1,39.2,29.84,ENE,66,1.0,14.0,93,0.00,,OVC007,0.20,VWS V14.00,2013-04-11 08:28:00,
2013-04-11 04:33:00,41.1,39.2,29.83,East,92,7.0,10.0,93,0.00,,OVC007,0.20,VWS V14.00,2013-04-11 08:33:00,
2013-04-11 04:38:00,41.1,39.2,29.82,NE,48,14.0,14.0,93,0.00,,OVC007,0.20,VWS V14.00,2013-04-11 08:38:00,
2013-04-11 04:43:00,41.1,39.2,29.83,ENE,78,11.0,13.0,93,0.00,,OVC007,0.20,VWS V14.00,2013-04-11 08:43:00,
2013-04-11 04:48:00,41.1,39.2,29.85,East,90,16.0,16.0,93,0.00,,OVC007,0.20,VWS V14.00,2013-04-11 08:48:00,
2013-04-11 04:53:00,41.2,39.3,29.88,NW,304,25.0,25.0,93,0.02,,OVC007,0.22,VWS V14.00,2013-04-11 08:53:00,
2013-04-11 04:58:00,41.3,39.4,29.99,East,93,4.0,25.0,93,0.16,,OVC007,0.36,VWS V14.00,2013-04-11 08:58:00,
2013-04-11 05:03:00,41.0,39.1,29.86,ENE,67,3.0,9.0,93,0.30,,,0.50,VWS V14.00,2013-04-11 09:03:00,
2013-04-11 05:08:00,40.9,39.0,29.90,NW,319,4.0,9.0,93,0.32,,,0.52,VWS V14.00,2013-04-11 09:08:00,
2013-04-11 05:13:00,40.9,39.0,29.93,NW,306,0.0,6.0,93,0.34,,,0.54,VWS V14.00,2013-04-11 09:13:00,
2013-04-11 05:18:00,40.9,39.0,29.92,NE,47,0.0,6.0,93,0.38,,,0.58,VWS V14.00,2013-04-11 09:18:00,
2013-04-11 05:23:00,40.8,38.9,29.91,NE,47,2.0,2.0,93,0.42,,,0.62,VWS V14.00,2013-04-11 09:23:00,
2013-04-11 05:28:00,40.7,38.8,29.91,East,82,0.0,3.0,93,0.46,,,0.66,VWS V14.00,2013-04-11 09:28:00,
2013-04-11 05:33:00,40.7,38.8,29.91,East,94,0.0,2.0,93,0.49,, +RA,0.69,VWS V14.00,2013-04-11 09:33:00,
2013-04-11 05:38:00,40.7,38.8,29.90,East,96,0.0,2.0,93,0.50,, +RA,0.70,VWS V14.00,2013-04-11 09:38:00,
2013-04-11 05:43:00,40.7,38.8,29.90,ENE,65,2.0,4.0,93,0.52,, +RA,0.72,VWS V14.00,2013-04-11 09:43:00,
2013-04-11 05:48:00,40.7,38.8,29.90,ENE,78,0.0,4.0,93,0.53,, +RA,0.73,VWS V14.00,2013-04-11 09:48:00,
2013-04-11 05:53:00,40.7,38.8,29.90,ESE,122,3.0,5.0,93,0.53,, +RA,0.73,VWS V14.00,2013-04-11 09:53:00,
2013-04-11 05:58:00,40.8,39.2,29.90,ESE,109,0.0,5.0,94,0.54,, +RA,0.74,VWS V14.00,2013-04-11 09:58:00,
2013-04-11 06:03:00,40.8,39.2,29.88,ESE,103,4.0,7.0,94,0.31,,-RA,0.75,VWS V14.00,2013-04-11 10:03:00,
2013-04-11 06:08:00,40.9,39.3,29.86,East,94,3.0,11.0,94,0.32,,-RA,0.76,VWS V14.00,2013-04-11 10:08:00,
2013-04-11 06:13:00,40.8,39.2,29.85,ESE,117,2.0,18.0,94,0.25,,-RA,0.77,VWS V14.00,2013-04-11 10:13:00,
2013-04-11 06:18:00,40.6,39.0,29.84,ESE,105,6.0,18.0,94,0.26,,-RA,0.78,VWS V14.00,2013-04-11 10:18:00,
2013-04-11 06:23:00,40.5,38.9,29.83,ESE,119,6.0,14.0,94,0.20,,-RA,0.79,VWS V14.00,2013-04-11 10:23:00,
2013-04-11 06:28:00,40.2,38.3,29.82,East,101,10.0,15.0,93,0.20,,-RA,0.79,VWS V14.00,2013-04-11 10:28:00,
2013-04-11 06:33:00,40.1,38.5,29.82,SE,135,9.0,14.0,94,0.13,,RA,0.80,VWS V14.00,2013-04-11 10:33:00,
2013-04-11 06:38:00,40.0,38.4,29.82,ESE,119,10.0,17.0,94,0.13,,RA,0.80,VWS V14.00,2013-04-11 10:38:00,
2013-04-11 06:42:00,39.8,38.2,29.83,East,85,6.0,18.0,94,0.09,,RA,0.80,VWS V14.00,2013-04-11 10:42:00,
2013-04-11 06:47:00,39.8,38.2,29.84,ESE,103,3.0,18.0,94,0.09,,RA,0.80,VWS V14.00,2013-04-11 10:47:00,
2013-04-11 06:52:00,39.8,38.2,29.85,East,95,4.0,7.0,94,0.07,,RA,0.80,VWS V14.00,2013-04-11 10:52:00,
2013-04-11 06:57:00,39.8,38.2,29.85,ENE,75,5.0,13.0,94,0.07,,RA,0.80,VWS V14.00,2013-04-11 10:57:00,
2013-04-11 07:02:00,39.7,37.8,29.84,East,86,4.0,18.0,93,0.06,,-RA,0.80,VWS V14.00,2013-04-11 11:02:00,
2013-04-11 07:07:00,39.6,37.8,29.84,East,86,5.0,18.0,93,0.06,,-RA,0.80,VWS V14.00,2013-04-11 11:07:00,
2013-04-11 07:12:00,39.4,37.5,29.84,ESE,110,5.0,13.0,93,0.04,,-RA,0.80,VWS V14.00,2013-04-11 11:12:00,
2013-04-11 07:17:00,39.3,37.7,29.83,ESE,115,7.0,14.0,94,0.04,,-RA,0.80,VWS V14.00,2013-04-11 11:17:00,
2013-04-11 07:23:00,39.3,37.7,29.84,ESE,123,9.0,16.0,94,0.02,,-RA,0.80,VWS V14.00,2013-04-11 11:23:00,
2013-04-11 07:28:00,39.2,37.6,29.85,East,84,11.0,17.0,94,0.02,,-RA,0.80,VWS V14.00,2013-04-11 11:28:00,
2013-04-11 07:33:00,39.2,37.6,29.85,East,94,2.0,12.0,94,0.01,,-RA,0.80,VWS V14.00,2013-04-11 11:33:00,
2013-04-11 07:38:00,39.2,37.6,29.84,East,79,5.0,21.0,94,0.01,,-RA,0.80,VWS V14.00,2013-04-11 11:38:00,
2013-04-11 07:43:00,39.1,37.2,29.85,East,90,4.0,16.0,93,0.00,,-RA,0.80,VWS V14.00,2013-04-11 11:43:00,
2013-04-11 07:48:00,39.1,37.2,29.86,East,96,2.0,16.0,93,0.00,,-RA,0.80,VWS V14.00,2013-04-11 11:48:00,
2013-04-11 07:53:00,39.1,37.2,29.87,NE,51,4.0,12.0,93,0.00,,-RA,0.80,VWS V14.00,2013-04-11 11:53:00,
2013-04-11 07:58:00,39.1,37.2,29.88,East,84,4.0,12.0,93,0.00,,-RA,0.80,VWS V14.00,2013-04-11 11:58:00,
2013-04-11 08:03:00,39.1,37.2,29.88,East,96,4.0,13.0,93,0.00,,-RA,0.80,VWS V14.00,2013-04-11 12:03:00,
2013-04-11 08:08:00,39.1,37.2,29.88,East,95,6.0,15.0,93,0.00,,-RA,0.80,VWS V14.00,2013-04-11 12:08:00,
2013-04-11 08:13:00,39.0,37.2,29.88,ENE,65,6.0,12.0,93,0.00,,-RA,0.80,VWS V14.00,2013-04-11 12:13:00,
2013-04-11 08:18:00,39.0,37.2,29.88,NE,52,6.0,15.0,93,0.01,,-RA,0.81,VWS V14.00,2013-04-11 12:18:00,
2013-04-11 08:23:00,38.9,37.0,29.86,East,96,4.0,16.0,93,0.02,,-RA,0.82,VWS V14.00,2013-04-11 12:23:00,
2013-04-11 08:28:00,38.9,37.0,29.87,ENE,67,11.0,16.0,93,0.02,,-RA,0.82,VWS V14.00,2013-04-11 12:28:00,
2013-04-11 08:33:00,38.9,37.0,29.88,East,85,3.0,18.0,93,0.03,,-RA,0.83,VWS V14.00,2013-04-11 12:33:00,
2013-04-11 08:38:00,38.8,37.0,29.88,ENE,59,3.0,18.0,93,0.03,,-RA,0.83,VWS V14.00,2013-04-11 12:38:00,
2013-04-11 08:43:00,38.8,37.0,29.88,East,83,6.0,13.0,93,0.03,,-RA,0.83,VWS V14.00,2013-04-11 12:43:00,
2013-04-11 08:48:00,38.9,37.0,29.87,East,97,6.0,13.0,93,0.03,,-RA,0.83,VWS V14.00,2013-04-11 12:48:00,
2013-04-11 08:53:00,38.9,37.0,29.86,ESE,121,7.0,15.0,93,0.03,,-RA,0.83,VWS V14.00,2013-04-11 12:53:00,
2013-04-11 08:58:00,38.8,37.0,29.86,ENE,67,9.0,17.0,93,0.03,,-RA,0.83,VWS V14.00,2013-04-11 12:58:00,
2013-04-11 09:03:00,38.8,37.0,29.86,ENE,71,17.0,19.0,93,0.03,,OVC008,0.83,VWS V14.00,2013-04-11 13:03:00,
2013-04-11 09:08:00,38.8,37.0,29.86,East,101,12.0,19.0,93,0.03,,OVC008,0.83,VWS V14.00,2013-04-11 13:08:00,
2013-04-11 09:13:00,38.8,37.0,29.87,East,88,7.0,19.0,93,0.03,,OVC008,0.83,VWS V14.00,2013-04-11 13:13:00,
2013-04-11 09:17:00,38.8,37.0,29.88,NE,49,0.0,19.0,93,0.03,,OVC008,0.83,VWS V14.00,2013-04-11 13:17:00,
2013-04-11 09:22:00,38.8,37.0,29.87,ENE,60,9.0,18.0,93,0.02,,OVC008,0.83,VWS V14.00,2013-04-11 13:22:00,
2013-04-11 09:27:00,38.7,36.8,29.87,ENE,75,4.0,18.0,93,0.02,,OVC008,0.83,VWS V14.00,2013-04-11 13:27:00,
2013-04-11 09:32:00,38.8,37.0,29.87,SE,128,3.0,16.0,93,0.01,,OVC008,0.83,VWS V14.00,2013-04-11 13:32:00,
2013-04-11 09:37:00,38.8,37.0,29.87,ESE,121,3.0,22.0,93,0.01,,OVC008,0.83,VWS V14.00,2013-04-11 13:37:00,
2013-04-11 09:42:00,38.9,37.0,29.87,East,84,5.0,12.0,93,0.00,,OVC008,0.83,VWS V14.00,2013-04-11 13:42:00,
2013-04-11 09:47:00,38.9,37.0,29.87,ENE,74,16.0,16.0,93,0.00,,OVC008,0.83,VWS V14.00,2013-04-11 13:47:00,
2013-04-11 09:52:00,38.8,37.0,29.86,NE,53,3.0,16.0,93,0.00,,OVC008,0.83,VWS V14.00,2013-04-11 13:52:00,
2013-04-11 09:57:00,38.8,37.0,29.85,East,82,10.0,24.0,93,0.00,,OVC008,0.83,VWS V14.00,2013-04-11 13:57:00,
2013-04-11 10:02:00,38.8,37.0,29.85,ESE,103,9.0,18.0,93,0.00,,OVC008,0.83,VWS V14.00,2013-04-11 14:02:00,
2013-04-11 10:07:00,38.9,37.0,29.85,ENE,63,12.0,18.0,93,0.00,,OVC008,0.83,VWS V14.00,2013-04-11 14:07:00,
2013-04-11 10:12:00,38.8,37.0,29.83,ENE,72,13.0,18.0,93,0.00,,OVC008,0.83,VWS V14.00,2013-04-11 14:12:00,
2013-04-11 10:17:00,38.9,36.8,29.84,ENE,62,6.0,18.0,92,0.00,,OVC008,0.83,VWS V14.00,2013-04-11 14:17:00,
2013-04-11 10:22:00,39.0,36.9,29.85,NE,55,9.0,17.0,92,0.00,,OVC008,0.83,VWS V14.00,2013-04-11 14:22:00,
2013-04-11 10:27:00,39.1,37.0,29.85,East,90,13.0,21.0,92,0.00,,OVC008,0.83,VWS V14.00,2013-04-11 14:27:00,
2013-04-11 10:32:00,39.1,37.0,29.85,ENE,77,12.0,16.0,92,0.00,,OVC008,0.83,VWS V14.00,2013-04-11 14:32:00,
2013-04-11 10:37:00,39.1,37.0,29.83,East,79,10.0,21.0,92,0.00,,OVC008,0.83,VWS V14.00,2013-04-11 14:37:00,
2013-04-11 10:42:00,39.1,37.0,29.83,East,94,5.0,16.0,92,0.00,,OVC008,0.83,VWS V14.00,2013-04-11 14:42:00,
2013-04-11 10:47:00,39.1,37.0,29.84,East,88,9.0,20.0,92,0.00,,OVC008,0.83,VWS V14.00,2013-04-11 14:47:00,
2013-04-11 10:52:00,39.1,37.0,29.86,ENE,60,16.0,17.0,92,0.00,,OVC008,0.83,VWS V14.00,2013-04-11 14:52:00,
2013-04-11 10:57:00,39.1,37.0,29.86,East,100,5.0,20.0,92,0.00,,OVC008,0.83,VWS V14.00,2013-04-11 14:57:00,
2013-04-11 11:02:00,39.2,37.1,29.86,East,91,9.0,18.0,92,0.00,,OVC006,0.83,VWS V14.00,2013-04-11 15:02:00,
2013-04-11 11:07:00,39.2,37.1,29.85,East,96,7.0,18.0,92,0.00,,OVC006,0.83,VWS V14.00,2013-04-11 15:07:00,
2013-04-11 11:12:00,39.3,37.2,29.85,East,88,10.0,20.0,92,0.00,,OVC006,0.83,VWS V14.00,2013-04-11 15:12:00,
2013-04-11 11:17:00,39.4,37.3,29.86,ESE,109,5.0,20.0,92,0.00,,OVC006,0.83,VWS V14.00,2013-04-11 15:17:00,
2013-04-11 11:22:00,39.4,37.3,29.85,East,100,4.0,14.0,92,0.00,,OVC006,0.83,VWS V14.00,2013-04-11 15:22:00,
2013-04-11 11:27:00,39.4,37.0,29.85,ENE,75,4.0,18.0,91,0.00,,OVC006,0.83,VWS V14.00,2013-04-11 15:27:00,
2013-04-11 11:32:00,39.3,37.2,29.85,ESE,119,6.0,17.0,92,0.00,,OVC006,0.83,VWS V14.00,2013-04-11 15:32:00,
2013-04-11 11:37:00,39.3,36.9,29.85,East,80,5.0,17.0,91,0.00,,OVC006,0.83,VWS V14.00,2013-04-11 15:37:00,
2013-04-11 11:42:00,39.1,36.7,29.86,NE,39,3.0,18.0,91,0.00,,OVC006,0.83,VWS V14.00,2013-04-11 15:42:00,
2013-04-11 11:47:00,38.9,36.5,29.85,ENE,65,10.0,18.0,91,0.00,,OVC006,0.83,VWS V14.00,2013-04-11 15:47:00,
2013-04-11 11:52:00,38.8,36.4,29.85,East,94,9.0,16.0,91,0.00,,OVC006,0.83,VWS V14.00,2013-04-11 15:52:00,
2013-04-11 11:57:00,38.7,36.3,29.85,ESE,104,10.0,16.0,91,0.00,,OVC006,0.83,VWS V14.00,2013-04-11 15:57:00,
2013-04-11 12:02:00,38.6,36.2,29.85,SE,124,5.0,18.0,91,0.00,,OVC006,0.83,VWS V14.00,2013-04-11 16:02:00,
2013-04-11 12:07:00,38.7,36.3,29.85,ESE,107,3.0,18.0,91,0.00,,OVC006,0.83,VWS V14.00,2013-04-11 16:07:00,
2013-04-11 12:12:00,38.7,36.3,29.85,ENE,68,10.0,14.0,91,0.00,,OVC006,0.83,VWS V14.00,2013-04-11 16:12:00,
2013-04-11 12:17:00,38.6,36.2,29.84,ENE,65,9.0,20.0,91,0.00,,OVC006,0.83,VWS V14.00,2013-04-11 16:17:00,
2013-04-11 12:22:00,38.6,36.2,29.84,East,81,4.0,17.0,91,0.00,,OVC006,0.83,VWS V14.00,2013-04-11 16:22:00,
2013-04-11 12:27:00,38.5,36.1,29.84,ENE,71,6.0,20.0,91,0.00,,OVC006,0.83,VWS V14.00,2013-04-11 16:27:00,
2013-04-11 12:32:00,38.6,36.2,29.84,East,93,9.0,15.0,91,0.00,,OVC006,0.83,VWS V14.00,2013-04-11 16:32:00,
2013-04-11 12:37:00,38.5,36.1,29.85,East,98,4.0,19.0,91,0.00,,OVC006,0.83,VWS V14.00,2013-04-11 16:37:00,
2013-04-11 12:42:00,38.4,36.0,29.84,ESE,109,6.0,20.0,91,0.00,,OVC006,0.83,VWS V14.00,2013-04-11 16:42:00,
2013-04-11 12:47:00,38.5,36.1,29.85,ENE,57,4.0,20.0,91,0.00,,OVC006,0.83,VWS V14.00,2013-04-11 16:47:00,
2013-04-11 12:52:00,38.4,36.0,29.84,ENE,71,9.0,21.0,91,0.00,,OVC006,0.83,VWS V14.00,2013-04-11 16:52:00,
2013-04-11 12:57:00,38.3,35.9,29.83,ENE,74,14.0,21.0,91,0.00,,OVC006,0.83,VWS V14.00,2013-04-11 16:57:00,
2013-04-11 13:02:00,38.2,35.8,29.82,NNE,32,18.0,20.0,91,0.00,,-RA,0.83,VWS V14.00,2013-04-11 17:02:00,
2013-04-11 13:07:00,38.3,35.9,29.83,East,92,4.0,20.0,91,0.00,,-RA,0.83,VWS V14.00,2013-04-11 17:07:00,
2013-04-11 13:12:00,38.4,36.0,29.83,ENE,78,7.0,16.0,91,0.00,,-RA,0.83,VWS V14.00,2013-04-11 17:12:00,
2013-04-11 13:17:00,38.3,36.2,29.84,East,95,6.0,19.0,92,0.00,,-RA,0.83,VWS V14.00,2013-04-11 17:17:00,
2013-04-11 13:22:00,38.2,35.8,29.84,SE,144,11.0,16.0,91,0.00,,-RA,0.83,VWS V14.00,2013-04-11 17:22:00,
2013-04-11 13:27:00,38.1,35.7,29.85,East,101,3.0,28.0,91,0.00,,-RA,0.83,VWS V14.00,2013-04-11 17:27:00,
2013-04-11 13:32:00,38.0,35.6,29.86,ESE,105,3.0,18.0,91,0.00,,-RA,0.83,VWS V14.00,2013-04-11 17:32:00,
2013-04-11 13:37:00,37.9,35.5,29.86,East,87,4.0,18.0,91,0.00,,-RA,0.83,VWS V14.00,2013-04-11 17:37:00,
2013-04-11 13:42:00,37.8,35.4,29.86,East,98,3.0,15.0,91,0.00,,-RA,0.83,VWS V14.00,2013-04-11 17:42:00,
2013-04-11 13:47:00,37.7,35.3,29.86,SE,136,10.0,15.0,91,0.00,,-RA,0.83,VWS V14.00,2013-04-11 17:47:00,
2013-04-11 13:52:00,37.6,35.2,29.85,East,87,3.0,14.0,91,0.00,,-RA,0.83,VWS V14.00,2013-04-11 17:52:00,
2013-04-11 13:57:00,37.6,35.2,29.85,ENE,69,12.0,18.0,91,0.00,,-RA,0.83,VWS V14.00,2013-04-11 17:57:00,
2013-04-11 14:03:00,37.5,35.1,29.85,NE,41,6.0,14.0,91,0.00,,OVC006,0.83,VWS V14.00,2013-04-11 18:03:00,
2013-04-11 14:08:00,37.4,35.0,29.85,East,100,5.0,14.0,91,0.00,,OVC006,0.83,VWS V14.00,2013-04-11 18:08:00,
2013-04-11 14:13:00,37.4,35.0,29.85,East,82,5.0,14.0,91,0.00,,OVC006,0.83,VWS V14.00,2013-04-11 18:13:00,
2013-04-11 14:18:00,37.5,35.1,29.84,ENE,69,9.0,17.0,91,0.00,,OVC006,0.83,VWS V14.00,2013-04-11 18:18:00,
2013-04-11 14:23:00,37.4,35.0,29.85,ENE,63,7.0,16.0,91,0.00,,OVC006,0.83,VWS V14.00,2013-04-11 18:23:00,
2013-04-11 14:28:00,37.4,35.0,29.84,East,80,5.0,17.0,91,0.00,,OVC006,0.83,VWS V14.00,2013-04-11 18:28:00,
2013-04-11 14:33:00,37.3,34.9,29.83,ESE,114,4.0,15.0,91,0.00,,OVC006,0.83,VWS V14.00,2013-04-11 18:33:00,
2013-04-11 14:38:00,37.4,35.0,29.82,East,84,3.0,15.0,91,0.00,,OVC006,0.83,VWS V14.00,2013-04-11 18:38:00,
2013-04-11 14:43:00,37.4,35.0,29.81,ENE,64,5.0,16.0,91,0.00,,OVC006,0.83,VWS V14.00,2013-04-11 18:43:00,
2013-04-11 14:48:00,37.4,35.0,29.81,ESE,119,5.0,25.0,91,0.00,,OVC006,0.83,VWS V14.00,2013-04-11 18:48:00,
2013-04-11 14:53:00,37.5,35.1,29.81,ESE,104,11.0,18.0,91,0.00,,OVC006,0.83,VWS V14.00,2013-04-11 18:53:00,
2013-04-11 14:58:00,37.6,35.2,29.81,East,90,4.0,18.0,91,0.00,,OVC006,0.83,VWS V14.00,2013-04-11 18:58:00,
2013-04-11 15:03:00,37.7,35.3,29.80,East,84,12.0,14.0,91,0.00,,OVC006,0.83,VWS V14.00,2013-04-11 19:03:00,
2013-04-11 15:08:00,37.8,35.4,29.80,East,89,2.0,16.0,91,0.00,,OVC006,0.83,VWS V14.00,2013-04-11 19:08:00,
2013-04-11 15:13:00,37.9,35.5,29.80,East,87,6.0,14.0,91,0.00,,OVC006,0.83,VWS V14.00,2013-04-11 19:13:00,
2013-04-11 15:18:00,37.9,35.5,29.80,East,94,6.0,23.0,91,0.00,,OVC006,0.83,VWS V14.00,2013-04-11 19:18:00,
2013-04-11 15:23:00,37.9,35.5,29.79,SE,130,7.0,21.0,91,0.00,,OVC006,0.83,VWS V14.00,2013-04-11 19:23:00,
2013-04-11 15:28:00,37.8,35.1,29.80,ESE,118,6.0,22.0,90,0.00,,OVC006,0.83,VWS V14.00,2013-04-11 19:28:00,
2013-04-11 15:33:00,37.7,35.0,29.79,ENE,67,9.0,18.0,90,0.00,,OVC006,0.83,VWS V14.00,2013-04-11 19:33:00,
2013-04-11 15:38:00,37.7,35.0,29.78,ENE,71,11.0,19.0,90,0.00,,OVC006,0.83,VWS V14.00,2013-04-11 19:38:00,
2013-04-11 15:43:00,37.7,35.0,29.79,East,94,6.0,17.0,90,0.00,,OVC006,0.83,VWS V14.00,2013-04-11 19:43:00,
2013-04-11 15:48:00,37.8,35.1,29.79,ESE,105,1.0,17.0,90,0.00,,OVC006,0.83,VWS V14.00,2013-04-11 19:48:00,
2013-04-11 15:53:00,37.6,34.9,29.79,East,92,7.0,23.0,90,0.00,,OVC006,0.83,VWS V14.00,2013-04-11 19:53:00,
2013-04-11 15:58:00,37.5,34.8,29.78,East,99,9.0,23.0,90,0.00,,OVC006,0.83,VWS V14.00,2013-04-11 19:58:00,
2013-04-11 16:03:00,37.5,34.8,29.77,ESE,118,2.0,18.0,90,0.00,,OVC006,0.83,VWS V14.00,2013-04-11 20:03:00,
2013-04-11 16:08:00,37.6,35.2,29.77,NE,51,15.0,18.0,91,0.00,,OVC006,0.83,VWS V14.00,2013-04-11 20:08:00,
2013-04-11 16:13:00,37.6,34.9,29.77,East,95,4.0,17.0,90,0.00,,OVC006,0.83,VWS V14.00,2013-04-11 20:13:00,
2013-04-11 16:18:00,37.5,34.8,29.77,East,98,9.0,17.0,90,0.00,,OVC006,0.83,VWS V14.00,2013-04-11 20:18:00,
2013-04-11 16:23:00,37.3,34.9,29.78,SE,141,12.0,22.0,91,0.00,,OVC006,0.83,VWS V14.00,2013-04-11 20:23:00,
2013-04-11 16:28:00,37.3,34.9,29.78,ENE,73,9.0,22.0,91,0.00,,OVC006,0.83,VWS V14.00,2013-04-11 20:28:00,
2013-04-11 16:33:00,37.3,34.9,29.78,ESE,102,7.0,18.0,91,0.00,,OVC006,0.83,VWS V14.00,2013-04-11 20:33:00,
2013-04-11 16:38:00,37.3,34.9,29.77,ESE,102,5.0,18.0,91,0.00,,OVC006,0.83,VWS V14.00,2013-04-11 20:38:00,
2013-04-11 16:43:00,37.3,34.9,29.77,ESE,107,6.0,17.0,91,0.00,,OVC006,0.83,VWS V14.00,2013-04-11 20:43:00,
2013-04-11 16:48:00,37.3,34.9,29.77,ESE,108,3.0,17.0,91,0.00,,OVC006,0.83,VWS V14.00,2013-04-11 20:48:00,
2013-04-11 16:53:00,37.3,34.9,29.77,ESE,105,3.0,13.0,91,0.00,,OVC006,0.83,VWS V14.00,2013-04-11 20:53:00,
2013-04-11 16:58:00,37.3,35.2,29.76,East,86,9.0,15.0,92,0.00,,OVC006,0.83,VWS V14.00,2013-04-11 20:58:00,
2013-04-11 17:03:00,37.2,35.1,29.76,ENE,76,20.0,20.0,92,0.00,,-RA,0.83,VWS V14.00,2013-04-11 21:03:00,
2013-04-11 17:08:00,37.2,35.1,29.76,ESE,102,2.0,20.0,92,0.00,,-RA,0.83,VWS V14.00,2013-04-11 21:08:00,
2013-04-11 17:13:00,37.1,35.0,29.75,East,89,6.0,17.0,92,0.00,,-RA,0.83,VWS V14.00,2013-04-11 21:13:00,
2013-04-11 17:18:00,37.1,35.0,29.75,East,90,5.0,17.0,92,0.01,,-RA,0.84,VWS V14.00,2013-04-11 21:18:00,
2013-04-11 17:23:00,37.1,35.0,29.76,ENE,57,14.0,17.0,92,0.01,,-RA,0.84,VWS V14.00,2013-04-11 21:23:00,
2013-04-11 17:28:00,37.1,35.0,29.75,SE,127,4.0,17.0,92,0.01,,-RA,0.84,VWS V14.00,2013-04-11 21:28:00,
2013-04-11 17:33:00,37.2,35.1,29.76,East,98,6.0,13.0,92,0.01,,-RA,0.84,VWS V14.00,2013-04-11 21:33:00,
2013-04-11 17:38:00,37.2,35.1,29.76,ENE,76,6.0,17.0,92,0.01,,-RA,0.84,VWS V14.00,2013-04-11 21:38:00,
2013-04-11 17:43:00,37.2,35.1,29.76,East,94,15.0,15.0,92,0.01,,-RA,0.84,VWS V14.00,2013-04-11 21:43:00,
2013-04-11 17:48:00,37.2,35.1,29.75,East,81,5.0,16.0,92,0.01,,-RA,0.84,VWS V14.00,2013-04-11 21:48:00,
2013-04-11 17:53:00,37.2,35.4,29.74,East,98,3.0,13.0,93,0.01,,-RA,0.84,VWS V14.00,2013-04-11 21:53:00,
2013-04-11 17:58:00,37.2,35.4,29.74,East,88,7.0,19.0,93,0.01,,-RA,0.84,VWS V14.00,2013-04-11 21:58:00,
2013-04-11 18:03:00,37.2,35.4,29.74,East,101,6.0,18.0,93,0.01,,-RA,0.84,VWS V14.00,2013-04-11 22:03:00,
2013-04-11 18:08:00,37.3,35.5,29.75,ESE,123,6.0,19.0,93,0.01,,-RA,0.84,VWS V14.00,2013-04-11 22:08:00,
2013-04-11 18:13:00,37.4,35.6,29.75,East,96,14.0,14.0,93,0.02,,-RA,0.85,VWS V14.00,2013-04-11 22:13:00,
2013-04-11 18:18:00,37.3,35.5,29.75,ESE,107,5.0,15.0,93,0.02,,-RA,0.85,VWS V14.00,2013-04-11 22:18:00,
2013-04-11 18:23:00,37.3,35.5,29.74,East,97,0.0,20.0,93,0.01,,-RA,0.85,VWS V14.00,2013-04-11 22:23:00,
2013-04-11 18:28:00,37.3,35.5,29.74,East,94,3.0,20.0,93,0.01,,-RA,0.85,VWS V14.00,2013-04-11 22:28:00,
2013-04-11 18:33:00,37.4,35.6,29.73,SE,141,5.0,19.0,93,0.01,,-RA,0.85,VWS V14.00,2013-04-11 22:33:00,
2013-04-11 18:38:00,37.4,35.6,29.73,East,97,4.0,19.0,93,0.02,,-RA,0.86,VWS V14.00,2013-04-11 22:38:00,
2013-04-11 18:43:00,37.4,35.6,29.72,East,86,9.0,14.0,93,0.02,,-RA,0.86,VWS V14.00,2013-04-11 22:43:00,
2013-04-11 18:48:00,37.4,35.6,29.72,ENE,69,9.0,14.0,93,0.02,,-RA,0.86,VWS V14.00,2013-04-11 22:48:00,
2013-04-11 18:53:00,37.4,35.6,29.73,East,90,4.0,17.0,93,0.02,,-RA,0.86,VWS V14.00,2013-04-11 22:53:00,
2013-04-11 18:58:00,37.4,35.6,29.72,NE,56,13.0,23.0,93,0.02,,-RA,0.86,VWS V14.00,2013-04-11 22:58:00,
2013-04-11 19:03:00,37.3,35.5,29.72,East,84,3.0,13.0,93,0.02,,-RA,0.86,VWS V14.00,2013-04-11 23:03:00,
2013-04-11 19:08:00,37.4,35.6,29.72,East,82,0.0,15.0,93,0.02,,-RA,0.86,VWS V14.00,2013-04-11 23:08:00,
2013-04-11 19:13:00,37.4,35.6,29.72,ESE,103,2.0,13.0,93,0.02,,-RA,0.86,VWS V14.00,2013-04-11 23:13:00,
2013-04-11 19:18:00,37.4,35.6,29.71,East,86,2.0,13.0,93,0.03,,-RA,0.87,VWS V14.00,2013-04-11 23:18:00,
2013-04-11 19:23:00,37.4,35.6,29.71,East,93,17.0,17.0,93,0.02,,-RA,0.87,VWS V14.00,2013-04-11 23:23:00,
2013-04-11 19:28:00,37.3,35.5,29.71,ENE,63,5.0,17.0,93,0.02,,-RA,0.87,VWS V14.00,2013-04-11 23:28:00,
2013-04-11 19:33:00,37.3,35.5,29.71,ENE,74,5.0,10.0,93,0.03,,-RA,0.88,VWS V14.00,2013-04-11 23:33:00,
2013-04-11 19:38:00,37.4,35.6,29.70,East,92,3.0,15.0,93,0.03,,-RA,0.88,VWS V14.00,2013-04-11 23:38:00,
2013-04-11 19:43:00,37.4,35.6,29.70,East,82,5.0,16.0,93,0.02,,-RA,0.88,VWS V14.00,2013-04-11 23:43:00,
2013-04-11 19:48:00,37.4,35.6,29.70,ENE,64,13.0,16.0,93,0.02,,-RA,0.88,VWS V14.00,2013-04-11 23:48:00,
2013-04-11 19:53:00,37.4,35.6,29.69,East,90,12.0,14.0,93,0.02,,-RA,0.88,VWS V14.00,2013-04-11 23:53:00,
2013-04-11 19:58:00,37.4,35.6,29.69,ESE,105,4.0,19.0,93,0.02,,-RA,0.88,VWS V14.00,2013-04-11 23:58:00,
2013-04-11 20:03:00,37.4,35.6,29.69,ENE,63,9.0,18.0,93,0.02,,-RA,0.88,VWS V14.00,2013-04-12 00:03:00,
2013-04-11 20:08:00,37.4,35.6,29.69,ESE,107,6.0,18.0,93,0.03,,-RA,0.89,VWS V14.00,2013-04-12 00:08:00,
2013-04-11 20:13:00,37.4,35.6,29.69,East,82,0.0,11.0,93,0.03,,-RA,0.89,VWS V14.00,2013-04-12 00:13:00,
2013-04-11 20:18:00,37.4,35.6,29.69,ESE,109,6.0,16.0,93,0.04,,-RA,0.90,VWS V14.00,2013-04-12 00:18:00,
2013-04-11 20:23:00,37.5,35.7,29.68,East,99,9.0,12.0,93,0.03,,-RA,0.90,VWS V14.00,2013-04-12 00:23:00,
2013-04-11 20:28:00,37.4,35.6,29.68,East,87,8.0,13.0,93,0.03,,-RA,0.90,VWS V14.00,2013-04-12 00:28:00,
2013-04-11 20:33:00,37.4,35.6,29.68,ESE,107,9.0,13.0,93,0.02,,-RA,0.90,VWS V14.00,2013-04-12 00:33:00,
2013-04-11 20:38:00,37.4,35.6,29.68,East,92,6.0,14.0,93,0.03,,-RA,0.91,VWS V14.00,2013-04-12 00:38:00,
2013-04-11 20:43:00,37.4,35.6,29.68,ENE,67,5.0,15.0,93,0.04,,-RA,0.92,VWS V14.00,2013-04-12 00:43:00,
2013-04-11 20:48:00,37.5,35.7,29.68,East,86,3.0,15.0,93,0.04,,-RA,0.92,VWS V14.00,2013-04-12 00:48:00,
2013-04-11 20:53:00,37.5,35.7,29.68,ESE,115,9.0,13.0,93,0.05,,-RA,0.93,VWS V14.00,2013-04-12 00:53:00,
2013-04-11 20:58:00,37.5,35.7,29.67,East,82,9.0,13.0,93,0.05,,-RA,0.93,VWS V14.00,2013-04-12 00:58:00,
2013-04-11 21:03:00,37.5,35.7,29.68,East,91,11.0,11.0,93,0.06,,-RA,0.94,VWS V14.00,2013-04-12 01:03:00,
2013-04-11 21:08:00,37.5,35.7,29.68,East,84,5.0,15.0,93,0.06,,-RA,0.94,VWS V14.00,2013-04-12 01:08:00,
2013-04-11 21:13:00,37.5,35.7,29.68,East,86,4.0,12.0,93,0.06,,-RA,0.95,VWS V14.00,2013-04-12 01:13:00,
2013-04-11 21:18:00,37.5,35.7,29.68,NE,52,7.0,15.0,93,0.06,,-RA,0.95,VWS V14.00,2013-04-12 01:18:00,
2013-04-11 21:23:00,37.5,35.7,29.68,ENE,59,11.0,16.0,93,0.06,,-RA,0.96,VWS V14.00,2013-04-12 01:23:00,
2013-04-11 21:28:00,37.5,35.7,29.68,ESE,114,2.0,16.0,93,0.07,,-RA,0.97,VWS V14.00,2013-04-12 01:28:00,
2013-04-11 21:33:00,37.5,35.7,29.68,East,95,3.0,10.0,93,0.08,,-RA,0.98,VWS V14.00,2013-04-12 01:33:00,
2013-04-11 21:38:00,37.5,35.7,29.68,ESE,111,6.0,14.0,93,0.09,,-RA,0.99,VWS V14.00,2013-04-12 01:38:00,
2013-04-11 21:43:00,37.4,35.6,29.68,ENE,63,6.0,16.0,93,0.09,,-RA,1.00,VWS V14.00,2013-04-12 01:43:00,
2013-04-11 21:48:00,37.4,35.6,29.67,ENE,78,6.0,16.0,93,0.10,,-RA,1.01,VWS V14.00,2013-04-12 01:48:00,
2013-04-11 21:53:00,37.4,35.6,29.67,East,85,11.0,11.0,93,0.10,,-RA,1.03,VWS V14.00,2013-04-12 01:53:00,
2013-04-11 21:58:00,37.4,35.6,29.67,NE,42,6.0,16.0,93,0.11,,-RA,1.04,VWS V14.00,2013-04-12 01:58:00,
2013-04-11 22:03:00,37.4,35.6,29.67,East,83,5.0,14.0,93,0.12,,RA,1.05,VWS V14.00,2013-04-12 02:03:00,
2013-04-11 22:08:00,37.4,35.6,29.67,ENE,74,9.0,17.0,93,0.13,,RA,1.06,VWS V14.00,2013-04-12 02:08:00,
2013-04-11 22:13:00,37.3,35.5,29.66,East,88,11.0,20.0,93,0.13,,RA,1.07,VWS V14.00,2013-04-12 02:13:00,
2013-04-11 22:18:00,37.3,35.5,29.66,East,94,5.0,20.0,93,0.14,,RA,1.08,VWS V14.00,2013-04-12 02:18:00,
2013-04-11 22:23:00,37.3,35.5,29.66,East,98,6.0,12.0,93,0.14,,RA,1.09,VWS V14.00,2013-04-12 02:23:00,
2013-04-11 22:28:00,37.3,35.5,29.65,ENE,64,10.0,16.0,93,0.16,,RA,1.11,VWS V14.00,2013-04-12 02:28:00,
2013-04-11 22:33:00,37.3,35.5,29.64,East,80,6.0,13.0,93,0.15,,RA,1.12,VWS V14.00,2013-04-12 02:33:00,
2013-04-11 22:38:00,37.2,35.4,29.63,ESE,117,6.0,19.0,93,0.17,,RA,1.14,VWS V14.00,2013-04-12 02:38:00,
2013-04-11 22:43:00,37.2,35.4,29.62,East,87,10.0,21.0,93,0.16,,RA,1.15,VWS V14.00,2013-04-12 02:43:00,
2013-04-11 22:48:00,37.1,35.3,29.61,ESE,107,8.0,23.0,93,0.17,,RA,1.16,VWS V14.00,2013-04-12 02:48:00,
2013-04-11 22:53:00,37.1,35.3,29.59,NE,53,9.0,22.0,93,0.17,,RA,1.18,VWS V14.00,2013-04-12 02:53:00,
2013-04-11 22:58:00,37.1,35.3,29.59,East,96,5.0,22.0,93,0.18,,RA,1.19,VWS V14.00,2013-04-12 02:58:00,
2013-04-11 23:03:00,37.1,35.3,29.59,East,81,8.0,18.0,93,0.16,,RA,1.20,VWS V14.00,2013-04-12 03:03:00,
2013-04-11 23:08:00,37.1,35.3,29.58,ESE,105,4.0,18.0,93,0.16,,RA,1.20,VWS V14.00,2013-04-12 03:08:00,
2013-04-11 23:13:00,37.2,35.4,29.58,ESE,115,7.0,19.0,93,0.14,,RA,1.20,VWS V14.00,2013-04-12 03:13:00,
2013-04-11 23:18:00,37.3,35.5,29.60,ESE,111,6.0,19.0,93,0.14,,RA,1.20,VWS V14.00,2013-04-12 03:18:00,
2013-04-11 23:23:00,37.3,35.5,29.58,ESE,111,4.0,12.0,93,0.12,,RA,1.20,VWS V14.00,2013-04-12 03:23:00,
2013-04-11 23:28:00,37.4,35.6,29.60,East,84,7.0,19.0,93,0.12,,RA,1.20,VWS V14.00,2013-04-12 03:28:00,
2013-04-11 23:33:00,37.4,35.6,29.59,East,86,15.0,16.0,93,0.09,,RA,1.20,VWS V14.00,2013-04-12 03:33:00,
2013-04-11 23:38:00,37.5,35.9,29.60,East,82,14.0,16.0,94,0.09,,RA,1.20,VWS V14.00,2013-04-12 03:38:00,
2013-04-11 23:43:00,37.6,36.0,29.61,ESE,102,5.0,13.0,94,0.06,,RA,1.20,VWS V14.00,2013-04-12 03:43:00,
2013-04-11 23:48:00,37.7,36.1,29.60,ESE,106,6.0,14.0,94,0.06,,RA,1.20,VWS V14.00,2013-04-12 03:48:00,
2013-04-11 23:53:00,37.6,36.0,29.60,ENE,63,12.0,20.0,94,0.03,,RA,1.20,VWS V14.00,2013-04-12 03:53:00,
2013-04-11 23:58:00,37.7,36.1,29.61,East,83,5.0,20.0,94,0.03,,RA,1.20,VWS V14.00,2013-04-12 03:58:00,